KFRR/FRR METAR and TAF weather

Enter ICAO airport designator
Station Type Date Time Source
KFRR METAR 2021/07/30 06:55 UTC NOAA

KFRR 300655Z AUTO 00000KT 10SM CLR 22/20 A2981 RMK AO1


Station Type Date Time Source
KFRR Decoded METAR 2021/07/30 06:55 UTC NOAA

Station name not available
Jul 30, 2021 - 02:55 AM EDT / 2021.07.30 0655 UTC
Wind: Calm:0
Visibility: 10 mile(s):0
Sky conditions: clear
Temperature: 71 F (22 C)
Dew Point: 68 F (20 C)
Relative Humidity: 88%
Pressure (altimeter): 29.81 in. Hg (1009 hPa)
ob: KFRR 300655Z AUTO 00000KT 10SM CLR 22/20 A2981 RMK AO1
cycle: 7

Station Type Date Time Source
KFRR TAF UTC NOAA

Error!

Example: see airport list